sensor_id;sensor_type;location;lat;lon;timestamp;pressure;altitude;pressure_sealevel;temperature;humidity
43312;BME280;30041;48.300;16.352;2022-11-15T00:00:03;99998.38;;;21.47;48.82
43312;BME280;30041;48.300;16.352;2022-11-15T00:02:29;100002.16;;;21.46;48.88
43312;BME280;30041;48.300;16.352;2022-11-15T00:04:54;100015.41;;;21.48;48.82
43312;BME280;30041;48.300;16.352;2022-11-15T00:07:20;100013.75;;;21.47;49.00
43312;BME280;30041;48.300;16.352;2022-11-15T00:09:46;100010.25;;;21.46;48.89
43312;BME280;30041;48.300;16.352;2022-11-15T00:12:11;100007.53;;;21.46;48.81
43312;BME280;30041;48.300;16.352;2022-11-15T00:14:37;100009.41;;;21.46;48.95
43312;BME280;30041;48.300;16.352;2022-11-15T00:17:03;100013.75;;;21.47;48.83
43312;BME280;30041;48.300;16.352;2022-11-15T00:19:28;100012.13;;;21.46;48.76
43312;BME280;30041;48.300;16.352;2022-11-15T00:21:54;100005.66;;;21.47;48.87
43312;BME280;30041;48.300;16.352;2022-11-15T00:24:20;99997.56;;;21.47;48.83
43312;BME280;30041;48.300;16.352;2022-11-15T00:26:45;99993.25;;;21.46;48.89
43312;BME280;30041;48.300;16.352;2022-11-15T00:29:11;99985.97;;;21.46;48.69
43312;BME280;30041;48.300;16.352;2022-11-15T00:31:36;99985.16;;;21.46;48.89
43312;BME280;30041;48.300;16.352;2022-11-15T00:34:02;100000.25;;;21.47;48.66
43312;BME280;30041;48.300;16.352;2022-11-15T00:36:27;99996.75;;;21.46;48.91
43312;BME280;30041;48.300;16.352;2022-11-15T00:38:53;99987.59;;;21.47;48.82
43312;BME280;30041;48.300;16.352;2022-11-15T00:41:19;99987.59;;;21.47;48.55
43312;BME280;30041;48.300;16.352;2022-11-15T00:43:44;99989.25;;;21.48;48.69
43312;BME280;30041;48.300;16.352;2022-11-15T00:46:10;99987.84;;;21.46;48.71
43312;BME280;30041;48.300;16.352;2022-11-15T00:48:36;99998.38;;;21.47;48.90
43312;BME280;30041;48.300;16.352;2022-11-15T00:51:02;99998.38;;;21.47;48.86
43312;BME280;30041;48.300;16.352;2022-11-15T00:53:27;99994.88;;;21.47;48.80
43312;BME280;30041;48.300;16.352;2022-11-15T00:55:53;99983.28;;;21.46;48.89
43312;BME280;30041;48.300;16.352;2022-11-15T00:58:19;99984.31;;;21.45;48.98
43312;BME280;30041;48.300;16.352;2022-11-15T01:00:45;99980.34;;;21.48;48.76
43312;BME280;30041;48.300;16.352;2022-11-15T01:03:10;99979.50;;;21.47;48.77
43312;BME280;30041;48.300;16.352;2022-11-15T01:05:39;99974.38;;;21.46;48.84
43312;BME280;30041;48.300;16.352;2022-11-15T01:08:04;99983.28;;;21.46;48.68
43312;BME280;30041;48.300;16.352;2022-11-15T01:10:33;99971.41;;;21.47;48.81
43312;BME280;30041;48.300;16.352;2022-11-15T01:12:59;99967.09;;;21.46;48.83
43312;BME280;30041;48.300;16.352;2022-11-15T01:15:24;99965.22;;;21.47;48.67
43312;BME280;30041;48.300;16.352;2022-11-15T01:17:50;99968.72;;;21.47;48.72
43312;BME280;30041;48.300;16.352;2022-11-15T01:20:16;99970.59;;;21.47;48.70
43312;BME280;30041;48.300;16.352;2022-11-15T01:22:41;99966.88;;;21.48;48.72
43312;BME280;30041;48.300;16.352;2022-11-15T01:25:07;99966.88;;;21.48;48.69
43312;BME280;30041;48.300;16.352;2022-11-15T01:27:33;99966.88;;;21.48;48.89
43312;BME280;30041;48.300;16.352;2022-11-15T01:29:58;99973.31;;;21.47;48.66
43312;BME280;30041;48.300;16.352;2022-11-15T01:32:24;99972.25;;;21.48;48.97
43312;BME280;30041;48.300;16.352;2022-11-15T01:34:50;99968.97;;;21.46;48.57
43312;BME280;30041;48.300;16.352;2022-11-15T01:37:15;99973.31;;;21.47;48.73
43312;BME280;30041;48.300;16.352;2022-11-15T01:39:41;99967.09;;;21.46;48.73
43312;BME280;30041;48.300;16.352;2022-11-15T01:42:12;99959.00;;;21.46;48.85
43312;BME280;30041;48.300;16.352;2022-11-15T01:44:41;99962.50;;;21.47;48.70
43312;BME280;30041;48.300;16.352;2022-11-15T01:47:31;99950.09;;;21.46;48.66
43312;BME280;30041;48.300;16.352;2022-11-15T01:50:05;99947.41;;;21.46;48.77
43312;BME280;30041;48.300;16.352;2022-11-15T01:52:33;99951.94;;;21.45;48.74
43312;BME280;30041;48.300;16.352;2022-11-15T01:55:21;99954.66;;;21.45;48.74
43312;BME280;30041;48.300;16.352;2022-11-15T01:57:50;99951.72;;;21.47;48.68
43312;BME280;30041;48.300;16.352;2022-11-15T02:00:17;99947.41;;;21.46;48.67
43312;BME280;30041;48.300;16.352;2022-11-15T02:02:43;99948.22;;;21.46;48.66
43312;BME280;30041;48.300;16.352;2022-11-15T02:05:09;99953.38;;;21.48;48.53
43312;BME280;30041;48.300;16.352;2022-11-15T02:07:36;99951.72;;;21.47;48.67
43312;BME280;30041;48.300;16.352;2022-11-15T02:10:11;99942.81;;;21.46;48.56
43312;BME280;30041;48.300;16.352;2022-11-15T02:12:40;99939.75;;;21.43;48.76
43312;BME280;30041;48.300;16.352;2022-11-15T02:15:07;99939.53;;;21.44;48.65
43312;BME280;30041;48.300;16.352;2022-11-15T02:28:48;99942.00;;;21.46;48.70
43312;BME280;30041;48.300;16.352;2022-11-15T02:31:31;99936.63;;;21.46;48.57
43312;BME280;30041;48.300;16.352;2022-11-15T02:42:27;99945.75;;;21.45;48.89
43312;BME280;30041;48.300;16.352;2022-11-15T02:44:55;99945.75;;;21.45;48.56
43312;BME280;30041;48.300;16.352;2022-11-15T02:47:23;99939.06;;;21.47;48.69
43312;BME280;30041;48.300;16.352;2022-11-15T02:49:52;99938.25;;;21.47;48.65
43312;BME280;30041;48.300;16.352;2022-11-15T02:52:23;99940.34;;;21.45;48.43
43312;BME280;30041;48.300;16.352;2022-11-15T02:54:56;99943.84;;;21.45;48.74
43312;BME280;30041;48.300;16.352;2022-11-15T03:00:17;99936.63;;;21.46;48.63
43312;BME280;30041;48.300;16.352;2022-11-15T03:05:32;99935.78;;;21.45;48.47
43312;BME280;30041;48.300;16.352;2022-11-15T03:11:14;99930.63;;;21.44;48.59
43312;BME280;30041;48.300;16.352;2022-11-15T03:19:46;99925.84;;;21.46;48.39
43312;BME280;30041;48.300;16.352;2022-11-15T03:22:16;99928.28;;;21.47;48.52
43312;BME280;30041;48.300;16.352;2022-11-15T03:24:50;99922.88;;;21.47;48.55
43312;BME280;30041;48.300;16.352;2022-11-15T03:27:21;99922.06;;;21.47;48.48
43312;BME280;30041;48.300;16.352;2022-11-15T03:29:53;99918.78;;;21.45;48.53
43312;BME280;30041;48.300;16.352;2022-11-15T03:32:24;99913.38;;;21.45;48.65
43312;BME280;30041;48.300;16.352;2022-11-15T03:34:58;99911.50;;;21.45;48.60
43312;BME280;30041;48.300;16.352;2022-11-15T03:37:39;99908.00;;;21.45;48.55
43312;BME280;30041;48.300;16.352;2022-11-15T03:40:06;99909.66;;;21.46;48.41
43312;BME280;30041;48.300;16.352;2022-11-15T03:45:44;99897.19;;;21.45;48.43
43312;BME280;30041;48.300;16.352;2022-11-15T03:48:14;99894.28;;;21.46;48.48
43312;BME280;30041;48.300;16.352;2022-11-15T03:50:43;99890.19;;;21.44;48.55
43312;BME280;30041;48.300;16.352;2022-11-15T03:53:09;99890.19;;;21.44;48.67
43312;BME280;30041;48.300;16.352;2022-11-15T03:55:35;99897.19;;;21.45;48.47
43312;BME280;30041;48.300;16.352;2022-11-15T03:58:01;99894.50;;;21.45;48.49
43312;BME280;30041;48.300;16.352;2022-11-15T04:00:28;99885.59;;;21.44;48.56
43312;BME280;30041;48.300;16.352;2022-11-15T04:02:55;99884.78;;;21.44;48.65
43312;BME280;30041;48.300;16.352;2022-11-15T04:05:21;99881.03;;;21.45;48.61
43312;BME280;30041;48.300;16.352;2022-11-15T04:07:46;99882.09;;;21.44;48.63
43312;BME280;30041;48.300;16.352;2022-11-15T04:10:12;99880.22;;;21.44;48.62
43312;BME280;30041;48.300;16.352;2022-11-15T04:12:43;99880.44;;;21.43;48.48
43312;BME280;30041;48.300;16.352;2022-11-15T04:15:14;99886.63;;;21.43;48.43
43312;BME280;30041;48.300;16.352;2022-11-15T04:17:43;99883.72;;;21.45;48.46
43312;BME280;30041;48.300;16.352;2022-11-15T04:20:13;99879.41;;;21.44;48.41
43312;BME280;30041;48.300;16.352;2022-11-15T04:22:39;99871.31;;;21.44;48.56
43312;BME280;30041;48.300;16.352;2022-11-15T04:25:05;99865.91;;;21.44;48.50
43312;BME280;30041;48.300;16.352;2022-11-15T04:27:31;99871.91;;;21.46;48.49
43312;BME280;30041;48.300;16.352;2022-11-15T04:29:56;99871.06;;;21.45;48.42
43312;BME280;30041;48.300;16.352;2022-11-15T04:32:25;99868.59;;;21.44;48.53
43312;BME280;30041;48.300;16.352;2022-11-15T04:34:51;99862.38;;;21.43;48.40
43312;BME280;30041;48.300;16.352;2022-11-15T04:37:16;99861.56;;;21.43;48.62
43312;BME280;30041;48.300;16.352;2022-11-15T04:39:43;99872.13;;;21.44;48.48
43312;BME280;30041;48.300;16.352;2022-11-15T04:42:09;99866.94;;;21.43;48.41
43312;BME280;30041;48.300;16.352;2022-11-15T04:44:35;99869.66;;;21.43;48.54
43312;BME280;30041;48.300;16.352;2022-11-15T04:47:01;99864.84;;;21.45;48.48
43312;BME280;30041;48.300;16.352;2022-11-15T04:49:27;99871.31;;;21.44;48.43
43312;BME280;30041;48.300;16.352;2022-11-15T04:51:52;99856.16;;;21.43;48.57
43312;BME280;30041;48.300;16.352;2022-11-15T04:54:18;99857.81;;;21.44;48.41
43312;BME280;30041;48.300;16.352;2022-11-15T04:56:44;99857.81;;;21.44;48.48
43312;BME280;30041;48.300;16.352;2022-11-15T04:59:10;99862.16;;;21.45;48.36
43312;BME280;30041;48.300;16.352;2022-11-15T05:01:35;99852.19;;;21.45;48.50
43312;BME280;30041;48.300;16.352;2022-11-15T05:04:01;99850.91;;;21.48;48.45
43312;BME280;30041;48.300;16.352;2022-11-15T05:06:27;99840.13;;;21.48;48.40
43312;BME280;30041;48.300;16.352;2022-11-15T05:08:52;99846.34;;;21.48;48.44
43312;BME280;30041;48.300;16.352;2022-11-15T05:11:18;99840.13;;;21.48;48.41
43312;BME280;30041;48.300;16.352;2022-11-15T05:13:44;99841.75;;;21.49;48.41
43312;BME280;30041;48.300;16.352;2022-11-15T05:16:10;99844.47;;;21.49;48.30
43312;BME280;30041;48.300;16.352;2022-11-15T05:18:35;99846.34;;;21.48;48.41
43312;BME280;30041;48.300;16.352;2022-11-15T05:21:05;99842.00;;;21.47;48.49
43312;BME280;30041;48.300;16.352;2022-11-15T05:23:34;99844.47;;;21.49;48.33
43312;BME280;30041;48.300;16.352;2022-11-15T05:26:01;99839.06;;;21.49;48.40
43312;BME280;30041;48.300;16.352;2022-11-15T05:28:26;99835.09;;;21.51;48.15
43312;BME280;30041;48.300;16.352;2022-11-15T05:30:52;99838.59;;;21.52;48.37
43312;BME280;30041;48.300;16.352;2022-11-15T05:33:18;99829.09;;;21.49;48.48
43312;BME280;30041;48.300;16.352;2022-11-15T05:35:50;99837.78;;;21.51;48.45
43312;BME280;30041;48.300;16.352;2022-11-15T05:38:19;99838.59;;;21.52;48.45
43312;BME280;30041;48.300;16.352;2022-11-15T05:40:45;99839.44;;;21.52;48.38
43312;BME280;30041;48.300;16.352;2022-11-15T05:43:14;99831.34;;;21.52;48.31
43312;BME280;30041;48.300;16.352;2022-11-15T05:45:40;99835.09;;;21.51;48.38
43312;BME280;30041;48.300;16.352;2022-11-15T05:48:07;99829.47;;;21.53;48.38
43312;BME280;30041;48.300;16.352;2022-11-15T05:50:38;99822.66;;;21.50;48.42
43312;BME280;30041;48.300;16.352;2022-11-15T05:53:06;99817.00;;;21.52;48.45
43312;BME280;30041;48.300;16.352;2022-11-15T05:55:32;99820.06;;;21.55;48.27
43312;BME280;30041;48.300;16.352;2022-11-15T05:57:58;99814.09;;;21.53;48.34
43312;BME280;30041;48.300;16.352;2022-11-15T06:00:24;99816.56;;;21.55;48.34
43312;BME280;30041;48.300;16.352;2022-11-15T06:02:49;99808.47;;;21.55;48.29
43312;BME280;30041;48.300;16.352;2022-11-15T06:05:15;99808.47;;;21.55;48.34
43312;BME280;30041;48.300;16.352;2022-11-15T06:07:41;99811.19;;;21.55;48.26
43312;BME280;30041;48.300;16.352;2022-11-15T06:10:07;99808.81;;;21.59;48.18
43312;BME280;30041;48.300;16.352;2022-11-15T06:12:33;99820.06;;;21.55;48.42
43312;BME280;30041;48.300;16.352;2022-11-15T06:14:59;99817.38;;;21.55;48.27
43312;BME280;30041;48.300;16.352;2022-11-15T06:17:25;99821.16;;;21.54;48.37
43312;BME280;30041;48.300;16.352;2022-11-15T06:19:50;99821.00;;;21.61;48.22
43312;BME280;30041;48.300;16.352;2022-11-15T06:22:16;99820.19;;;21.61;49.73
43312;BME280;30041;48.300;16.352;2022-11-15T06:24:42;99827.09;;;21.45;49.82
43312;BME280;30041;48.300;16.352;2022-11-15T06:27:11;99821.44;;;21.34;49.87
43312;BME280;30041;48.300;16.352;2022-11-15T06:29:40;99830.78;;;21.32;50.06
43312;BME280;30041;48.300;16.352;2022-11-15T06:32:05;99834.78;;;21.29;50.11
43312;BME280;30041;48.300;16.352;2022-11-15T06:34:31;99835.59;;;21.30;50.03
43312;BME280;30041;48.300;16.352;2022-11-15T06:36:57;99830.19;;;21.30;49.94
43312;BME280;30041;48.300;16.352;2022-11-15T06:39:22;99820.84;;;21.32;49.87
43312;BME280;30041;48.300;16.352;2022-11-15T06:41:48;99824.81;;;21.30;49.92
43312;BME280;30041;48.300;16.352;2022-11-15T06:44:14;99825.66;;;21.30;49.86
43312;BME280;30041;48.300;16.352;2022-11-15T06:46:39;99830.19;;;21.30;49.76
43312;BME280;30041;48.300;16.352;2022-11-15T06:49:05;99826.69;;;21.29;49.83
43312;BME280;30041;48.300;16.352;2022-11-15T06:51:30;99836.88;;;21.27;50.03
43312;BME280;30041;48.300;16.352;2022-11-15T06:53:56;99830.44;;;21.28;49.81
43312;BME280;30041;48.300;16.352;2022-11-15T06:56:22;99827.28;;;21.31;49.70
43312;BME280;30041;48.300;16.352;2022-11-15T06:58:48;99829.38;;;21.29;49.73
43312;BME280;30041;48.300;16.352;2022-11-15T07:01:13;99829.38;;;21.29;49.86
43312;BME280;30041;48.300;16.352;2022-11-15T07:03:41;99833.16;;;21.40;49.59
43312;BME280;30041;48.300;16.352;2022-11-15T07:06:08;99832.16;;;21.53;49.29
43312;BME280;30041;48.300;16.352;2022-11-15T07:08:35;99843.41;;;21.50;49.48
43312;BME280;30041;48.300;16.352;2022-11-15T07:11:04;99846.63;;;21.40;49.75
43312;BME280;30041;48.300;16.352;2022-11-15T07:13:33;99842.41;;;21.32;49.50
43312;BME280;30041;48.300;16.352;2022-11-15T07:16:07;99843.53;;;21.13;47.37
43312;BME280;30041;48.300;16.352;2022-11-15T07:18:42;99834.66;;;21.24;48.31
43312;BME280;30041;48.300;16.352;2022-11-15T07:21:10;99835.25;;;21.26;48.89
43312;BME280;30041;48.300;16.352;2022-11-15T07:23:36;99832.28;;;21.16;48.69
43312;BME280;30041;48.300;16.352;2022-11-15T07:26:02;99829.47;;;21.11;48.51
43312;BME280;30041;48.300;16.352;2022-11-15T07:28:28;99830.53;;;21.10;48.20
43312;BME280;30041;48.300;16.352;2022-11-15T07:30:56;99833.03;;;21.23;48.18
43312;BME280;30041;48.300;16.352;2022-11-15T07:33:31;99819.78;;;21.33;47.87
43312;BME280;30041;48.300;16.352;2022-11-15T07:36:00;99820.75;;;21.39;47.87
43312;BME280;30041;48.300;16.352;2022-11-15T07:38:26;99819.38;;;21.48;47.58
43312;BME280;30041;48.300;16.352;2022-11-15T07:41:00;99821.25;;;21.48;47.72
43312;BME280;30041;48.300;16.352;2022-11-15T07:43:26;99821.25;;;21.48;47.98
43312;BME280;30041;48.300;16.352;2022-11-15T07:45:52;99813.50;;;21.51;47.86
43312;BME280;30041;48.300;16.352;2022-11-15T07:48:18;99810.81;;;21.51;47.73
43312;BME280;30041;48.300;16.352;2022-11-15T07:50:43;99809.50;;;21.54;47.81
43312;BME280;30041;48.300;16.352;2022-11-15T07:53:10;99807.88;;;21.53;47.90
43312;BME280;30041;48.300;16.352;2022-11-15T07:55:36;99807.41;;;21.56;47.91
43312;BME280;30041;48.300;16.352;2022-11-15T07:58:11;99812.00;;;21.55;47.91
43312;BME280;30041;48.300;16.352;2022-11-15T08:00:39;99811.75;;;21.57;47.92
43312;BME280;30041;48.300;16.352;2022-11-15T08:03:11;99815.75;;;21.54;48.06
43312;BME280;30041;48.300;16.352;2022-11-15T08:05:39;99820.91;;;21.56;48.02
43312;BME280;30041;48.300;16.352;2022-11-15T08:08:14;99811.19;;;21.55;48.08
43312;BME280;30041;48.300;16.352;2022-11-15T08:10:41;99809.06;;;21.57;47.91
43312;BME280;30041;48.300;16.352;2022-11-15T08:13:10;99806.13;;;21.59;47.93
43312;BME280;30041;48.300;16.352;2022-11-15T08:15:37;99804.50;;;21.58;48.09
43312;BME280;30041;48.300;16.352;2022-11-15T08:18:06;99802.38;;;21.60;48.01
43312;BME280;30041;48.300;16.352;2022-11-15T08:20:37;99799.91;;;21.58;47.81
43312;BME280;30041;48.300;16.352;2022-11-15T08:23:04;99792.41;;;21.60;48.15
43312;BME280;30041;48.300;16.352;2022-11-15T08:25:31;99798.88;;;21.59;48.10
43312;BME280;30041;48.300;16.352;2022-11-15T08:27:58;99791.59;;;21.60;47.96
43312;BME280;30041;48.300;16.352;2022-11-15T08:30:25;99802.13;;;21.61;48.13
43312;BME280;30041;48.300;16.352;2022-11-15T08:32:52;99798.63;;;21.61;48.19
43312;BME280;30041;48.300;16.352;2022-11-15T08:35:20;99798.63;;;21.61;48.23
43312;BME280;30041;48.300;16.352;2022-11-15T08:37:46;99800.72;;;21.59;48.31
43312;BME280;30041;48.300;16.352;2022-11-15T08:40:11;99798.63;;;21.61;48.04
43312;BME280;30041;48.300;16.352;2022-11-15T08:42:37;99802.13;;;21.61;48.22
43312;BME280;30041;48.300;16.352;2022-11-15T08:45:05;99796.41;;;21.58;48.20
43312;BME280;30041;48.300;16.352;2022-11-15T08:47:31;99791.34;;;21.61;48.23
43312;BME280;30041;48.300;16.352;2022-11-15T08:49:57;99785.38;;;21.59;48.25
43312;BME280;30041;48.300;16.352;2022-11-15T08:52:26;99793.22;;;21.61;48.38
43312;BME280;30041;48.300;16.352;2022-11-15T08:54:51;99787.81;;;21.61;48.09
43312;BME280;30041;48.300;16.352;2022-11-15T08:57:19;99791.81;;;21.58;48.33
43312;BME280;30041;48.300;16.352;2022-11-15T08:59:45;99795.69;;;21.62;48.23
43312;BME280;30041;48.300;16.352;2022-11-15T09:02:13;99794.28;;;21.60;48.34
43312;BME280;30041;48.300;16.352;2022-11-15T09:04:42;99795.91;;;21.61;48.26
43312;BME280;30041;48.300;16.352;2022-11-15T09:07:11;99790.53;;;21.61;48.30
43312;BME280;30041;48.300;16.352;2022-11-15T09:09:38;99787.50;;;21.57;48.36
43312;BME280;30041;48.300;16.352;2022-11-15T09:12:05;99784.91;;;21.62;48.32
43312;BME280;30041;48.300;16.352;2022-11-15T09:14:31;99776.81;;;21.62;48.25
43312;BME280;30041;48.300;16.352;2022-11-15T09:16:59;99775.16;;;21.61;48.29
43312;BME280;30041;48.300;16.352;2022-11-15T09:19:25;99775.75;;;21.63;48.38
43312;BME280;30041;48.300;16.352;2022-11-15T09:21:50;99777.84;;;21.61;48.28
43312;BME280;30041;48.300;16.352;2022-11-15T09:24:16;99781.63;;;21.60;48.45
43312;BME280;30041;48.300;16.352;2022-11-15T09:26:42;99787.59;;;21.62;48.35
43312;BME280;30041;48.300;16.352;2022-11-15T09:29:18;99774.94;;;21.63;48.35
43312;BME280;30041;48.300;16.352;2022-11-15T09:31:44;99772.47;;;21.61;48.28
43312;BME280;30041;48.300;16.352;2022-11-15T09:34:10;99774.81;;;21.58;48.37
43312;BME280;30041;48.300;16.352;2022-11-15T09:36:37;99766.25;;;21.61;48.44
43312;BME280;30041;48.300;16.352;2022-11-15T09:39:03;99762.50;;;21.62;48.42
43312;BME280;30041;48.300;16.352;2022-11-15T09:41:55;99754.28;;;21.56;48.41
43312;BME280;30041;48.300;16.352;2022-11-15T09:44:39;99756.28;;;21.61;48.43
43312;BME280;30041;48.300;16.352;2022-11-15T09:49:57;99740.09;;;21.61;48.40
43312;BME280;30041;48.300;16.352;2022-11-15T09:52:27;99740.09;;;21.61;48.42
43312;BME280;30041;48.300;16.352;2022-11-15T09:54:53;99733.06;;;21.60;48.51
43312;BME280;30041;48.300;16.352;2022-11-15T09:57:31;99730.59;;;21.59;48.37
43312;BME280;30041;48.300;16.352;2022-11-15T10:00:30;99720.88;;;21.58;48.42
43312;BME280;30041;48.300;16.352;2022-11-15T10:03:16;99729.19;;;21.56;48.44
43312;BME280;30041;48.300;16.352;2022-11-15T10:05:47;99719.38;;;21.62;48.36
43312;BME280;30041;48.300;16.352;2022-11-15T10:10:59;99719.38;;;21.62;48.46
43312;BME280;30041;48.300;16.352;2022-11-15T10:13:28;99715.00;;;21.61;48.46
43312;BME280;30041;48.300;16.352;2022-11-15T10:16:07;99698.25;;;21.59;48.41
43312;BME280;30041;48.300;16.352;2022-11-15T10:24:12;99700.13;;;21.58;48.26
43312;BME280;30041;48.300;16.352;2022-11-15T10:26:39;99698.59;;;21.62;48.23
43312;BME280;30041;48.300;16.352;2022-11-15T10:29:11;99681.84;;;21.60;48.37
43312;BME280;30041;48.300;16.352;2022-11-15T10:31:39;99683.94;;;21.58;48.32
43312;BME280;30041;48.300;16.352;2022-11-15T10:34:17;99683.34;;;21.56;48.49
43312;BME280;30041;48.300;16.352;2022-11-15T10:36:57;99677.75;;;21.58;48.53
43312;BME280;30041;48.300;16.352;2022-11-15T10:39:24;99681.03;;;21.60;48.40
43312;BME280;30041;48.300;16.352;2022-11-15T10:41:55;99674.56;;;21.61;48.53
43312;BME280;30041;48.300;16.352;2022-11-15T10:44:33;99677.50;;;21.59;48.45
43312;BME280;30041;48.300;16.352;2022-11-15T10:47:27;99667.19;;;21.56;48.57
43312;BME280;30041;48.300;16.352;2022-11-15T10:52:22;99657.78;;;21.59;48.39
43312;BME280;30041;48.300;16.352;2022-11-15T10:54:56;99655.56;;;21.55;48.55
43312;BME280;30041;48.300;16.352;2022-11-15T10:57:32;99649.97;;;21.57;48.33
43312;BME280;30041;48.300;16.352;2022-11-15T11:00:03;99643.50;;;21.58;48.38
43312;BME280;30041;48.300;16.352;2022-11-15T11:05:01;99647.25;;;21.57;48.42
43312;BME280;30041;48.300;16.352;2022-11-15T11:07:32;99648.88;;;21.58;48.40
43312;BME280;30041;48.300;16.352;2022-11-15T11:10:05;99647.25;;;21.57;48.43
43312;BME280;30041;48.300;16.352;2022-11-15T11:12:42;99644.88;;;21.61;48.34
43312;BME280;30041;48.300;16.352;2022-11-15T11:15:15;99636.22;;;21.59;48.42
43312;BME280;30041;48.300;16.352;2022-11-15T11:20:54;99627.66;;;21.50;48.53
43312;BME280;30041;48.300;16.352;2022-11-15T11:29:19;99615.63;;;21.52;48.56
43312;BME280;30041;48.300;16.352;2022-11-15T11:32:22;99616.66;;;21.51;48.66
43312;BME280;30041;48.300;16.352;2022-11-15T11:37:55;99613.97;;;21.51;48.50
43312;BME280;30041;48.300;16.352;2022-11-15T11:40:33;99612.44;;;21.55;48.56
43312;BME280;30041;48.300;16.352;2022-11-15T11:43:12;99611.63;;;21.55;48.57
43312;BME280;30041;48.300;16.352;2022-11-15T11:49:25;99595.19;;;21.56;48.49
43312;BME280;30041;48.300;16.352;2022-11-15T11:57:41;99579.25;;;21.55;48.43
43312;BME280;30041;48.300;16.352;2022-11-15T12:00:22;99580.88;;;21.56;48.37
43312;BME280;30041;48.300;16.352;2022-11-15T12:05:33;99568.13;;;21.51;48.59
43312;BME280;30041;48.300;16.352;2022-11-15T12:08:09;99559.56;;;21.54;48.34
43312;BME280;30041;48.300;16.352;2022-11-15T12:10:45;99559.81;;;21.53;48.50
43312;BME280;30041;48.300;16.352;2022-11-15T12:13:23;99560.03;;;21.51;48.53
43312;BME280;30041;48.300;16.352;2022-11-15T12:16:16;99547.34;;;21.52;48.49
43312;BME280;30041;48.300;16.352;2022-11-15T12:18:50;99546.31;;;21.53;48.48
43312;BME280;30041;48.300;16.352;2022-11-15T12:23:54;99536.34;;;21.53;48.40
43312;BME280;30041;48.300;16.352;2022-11-15T12:26:27;99535.53;;;21.53;48.34
43312;BME280;30041;48.300;16.352;2022-11-15T12:29:16;99532.03;;;21.52;48.44
43312;BME280;30041;48.300;16.352;2022-11-15T12:31:49;99526.50;;;21.59;48.34
43312;BME280;30041;48.300;16.352;2022-11-15T12:36:49;99518.63;;;21.58;48.48
43312;BME280;30041;48.300;16.352;2022-11-15T12:39:18;99503.75;;;21.55;48.34
43312;BME280;30041;48.300;16.352;2022-11-15T12:47:13;99506.69;;;21.53;48.49
43312;BME280;30041;48.300;16.352;2022-11-15T12:49:47;99493.78;;;21.55;48.40
43312;BME280;30041;48.300;16.352;2022-11-15T12:52:13;99494.13;;;21.59;48.30
43312;BME280;30041;48.300;16.352;2022-11-15T13:02:19;99486.25;;;21.58;48.35
43312;BME280;30041;48.300;16.352;2022-11-15T13:04:45;99485.78;;;21.61;48.30
43312;BME280;30041;48.300;16.352;2022-11-15T13:17:48;99453.09;;;21.57;48.28
43312;BME280;30041;48.300;16.352;2022-11-15T13:25:27;99449.09;;;21.60;48.30
43312;BME280;30041;48.300;16.352;2022-11-15T13:27:56;99448.28;;;21.59;48.33
43312;BME280;30041;48.300;16.352;2022-11-15T13:30:27;99450.63;;;21.55;48.39
43312;BME280;30041;48.300;16.352;2022-11-15T13:32:54;99447.78;;;21.62;48.23
43312;BME280;30041;48.300;16.352;2022-11-15T13:35:28;99446.84;;;21.56;48.32
43312;BME280;30041;48.300;16.352;2022-11-15T13:37:56;99445.09;;;21.62;48.29
43312;BME280;30041;48.300;16.352;2022-11-15T13:40:33;99439.94;;;21.61;48.22
43312;BME280;30041;48.300;16.352;2022-11-15T13:42:59;99435.09;;;21.63;48.28
43312;BME280;30041;48.300;16.352;2022-11-15T13:45:39;99435.91;;;21.63;48.28
43312;BME280;30041;48.300;16.352;2022-11-15T13:48:05;99425.13;;;21.63;48.41
43312;BME280;30041;48.300;16.352;2022-11-15T13:50:37;99418.13;;;21.62;48.22
43312;BME280;30041;48.300;16.352;2022-11-15T13:53:05;99420.81;;;21.62;48.35
43312;BME280;30041;48.300;16.352;2022-11-15T13:55:32;99418.69;;;21.64;48.19
43312;BME280;30041;48.300;16.352;2022-11-15T13:58:02;99408.94;;;21.63;48.25
43312;BME280;30041;48.300;16.352;2022-11-15T14:00:41;99407.09;;;21.64;48.17
43312;BME280;30041;48.300;16.352;2022-11-15T14:05:41;99394.88;;;21.61;48.29
43312;BME280;30041;48.300;16.352;2022-11-15T14:10:41;99390.34;;;21.62;48.33
43312;BME280;30041;48.300;16.352;2022-11-15T14:13:29;99385.41;;;21.59;48.40
43312;BME280;30041;48.300;16.352;2022-11-15T14:16:16;99383.78;;;21.58;48.31
43312;BME280;30041;48.300;16.352;2022-11-15T14:18:47;99379.56;;;21.62;48.35
43312;BME280;30041;48.300;16.352;2022-11-15T14:21:13;99382.81;;;21.64;48.29
43312;BME280;30041;48.300;16.352;2022-11-15T14:23:39;99382.81;;;21.64;48.34
43312;BME280;30041;48.300;16.352;2022-11-15T14:26:05;99382.47;;;21.60;48.45
43312;BME280;30041;48.300;16.352;2022-11-15T14:28:34;99378.47;;;21.63;48.38
43312;BME280;30041;48.300;16.352;2022-11-15T14:31:00;99379.28;;;21.63;48.41
43312;BME280;30041;48.300;16.352;2022-11-15T14:33:32;99380.94;;;21.64;48.35
43312;BME280;30041;48.300;16.352;2022-11-15T14:36:06;99379.28;;;21.63;48.52
43312;BME280;30041;48.300;16.352;2022-11-15T14:38:34;99377.75;;;21.67;48.36
43312;BME280;30041;48.300;16.352;2022-11-15T14:41:04;99376.13;;;21.66;48.26
43312;BME280;30041;48.300;16.352;2022-11-15T14:43:29;99379.06;;;21.65;48.25
43312;BME280;30041;48.300;16.352;2022-11-15T14:45:55;99376.34;;;21.65;48.36
43312;BME280;30041;48.300;16.352;2022-11-15T14:48:21;99376.34;;;21.65;48.44
43312;BME280;30041;48.300;16.352;2022-11-15T14:50:47;99378.00;;;21.66;48.53
43312;BME280;30041;48.300;16.352;2022-11-15T14:53:17;99378.00;;;21.66;48.34
43312;BME280;30041;48.300;16.352;2022-11-15T14:55:43;99379.84;;;21.65;48.43